Bell Canyon (1243) Station Data

Red Flag Warning: No
Fire Weather Zone: 242
SDGE Region: Orange County
Lat/Lon: 33.558/-117.547

Observations

Time Wind Speed/Gust Temp(F) RH Fuel Moist Fuel Temp(F) Dewpt(F) Tmax(F) Tmin(F) Accum Precip 10-min Precip SL Press(mb)
4/30 12:00am 68 2 G 4 55° 29% - - 23° 88.7° 53.7° - - 865.0
4/29 11:50pm 88 0 G 3 55° 29% - - 23° 88.7° 53.7° - - 866.0
4/29 11:40pm 78 1 G 2 58° 26% - - 23° 88.7° 53.7° - - 865.0
4/29 11:30pm 59 1 G 3 58° 27% - - 24° 88.7° 53.7° - - 865.0
4/29 11:20pm 336 1 G 4 58° 28% - - 25° 88.7° 53.7° - - 866.0
4/29 11:10pm 16 1 G 4 57° 30% - - 25° 88.7° 53.7° - - 866.0
4/29 11:00pm 6 1 G 4 57° 30% - - 26° 88.7° 53.7° - - 867.0
4/29 10:50pm 15 2 G 4 56° 32% - - 26° 88.7° 53.7° - - 867.0
4/29 10:40pm 24 1 G 3 55° 32% - - 26° 88.7° 53.7° - - 867.0
4/29 10:30pm 26 2 G 3 56° 32% - - 27° 88.7° 53.7° - - 867.0
4/29 10:20pm 23 2 G 5 56° 32% - - 27° 88.7° 53.7° - - 868.0
4/29 10:10pm 25 3 G 4 57° 32% - - 27° 88.7° 53.7° - - 867.0
4/29 10:00pm 2 1 G 3 58° 30% - - 27° 88.7° 53.7° - - 867.0
4/29 9:50pm 50 3 G 3 60° 27% - - 26° 88.7° 53.7° - - 867.0
4/29 9:40pm 10 1 G 3 58° 30% - - 27° 88.7° 53.7° - - 867.0
4/29 9:30pm 48 1 G 3 59° 29% - - 27° 88.7° 53.7° - - 867.0
4/29 9:20pm 37 2 G 4 60° 28% - - 27° 88.7° 53.7° - - 867.0
4/29 9:10pm 10 2 G 4 61° 27% - - 27° 88.7° 53.7° - - 867.0
4/29 9:00pm 42 2 G 6 61° 26% - - 26° 88.7° 53.7° - - 867.0
4/29 8:50pm 350 0 G 2 62° 27% - - 27° 88.7° 53.7° - - 867.0
4/29 8:40pm 34 1 G 4 63° 25% - - 27° 88.7° 53.7° - - 867.0
4/29 8:30pm 49 3 G 6 62° 25% - - 26° 88.7° 53.7° - - 867.0
4/29 8:20pm 75 2 G 6 63° 24% - - 26° 88.7° 53.7° - - 867.0
4/29 8:10pm 41 1 G 4 65° 23% - - 27° 88.7° 53.7° - - 867.0
4/29 8:00pm 32 3 G 4 67° 21% - - 26° 88.7° 53.7° - - 867.0
4/29 7:50pm 72 2 G 4 67° 21% - - 26° 88.7° 53.7° - - 868.0
4/29 7:40pm 94 1 G 2 69° 20% - - 26° 88.7° 53.7° - - 868.0
4/29 7:30pm 99 1 G 2 70° 18% - - 25° 88.7° 53.7° - - 868.0
4/29 7:20pm 121 0 G 3 72° 17% - - 24° 88.7° 53.7° - - 868.0
4/29 7:10pm 202 0 G 1 73° 15% - - 23° 88.7° 53.7° - - 868.0
4/29 7:00pm 189 0 G 4 76° 13% - - 22° 88.7° 53.7° - - 868.0
4/29 6:50pm 174 1 G 5 77° 13% - - 21° 88.7° 53.7° - - 868.0
4/29 6:40pm 154 1 G 7 77° 12% - - 21° 88.7° 53.7° - - 868.0
4/29 6:30pm 154 2 G 5 77° 12% - - 21° 88.7° 53.7° - - 869.0
4/29 6:20pm 153 2 G 6 77° 12% - - 21° 88.7° 53.7° - - 869.0
4/29 6:10pm 133 4 G 10 77° 12% - - 21° 88.7° 53.7° - - 869.0
4/29 6:00pm 156 3 G 8 77° 13% - - 22° 88.7° 53.7° - - 870.0
4/29 5:50pm 182 3 G 10 78° 13% - - 23° 88.7° 53.7° - - 870.0
4/29 5:40pm 166 2 G 7 78° 13% - - 24° 88.7° 53.7° - - 871.0
4/29 5:30pm 181 2 G 8 79° 14% - - 25° 88.7° 53.7° - - 871.0
4/29 5:20pm 231 5 G 12 79° 13% - - 25° 88.7° 53.7° - - 872.0
4/29 5:10pm 224 6 G 13 81° 12% - - 24° 88.7° 53.7° - - 872.0
4/29 5:00pm 221 5 G 10 82° 11% - - 23° 88.7° 53.7° - - 872.0
4/29 4:50pm 221 4 G 12 83° 11% - - 22° 88.7° 53.7° - - 872.0
4/29 4:40pm 187 2 G 11 83° 11% - - 24° 88.7° 53.7° - - 873.0
4/29 4:30pm 199 2 G 9 84° 12% - - 25° 88.7° 53.7° - - 873.0
4/29 4:20pm 210 4 G 9 83° 11% - - 24° 88.7° 53.7° - - 873.0
4/29 4:10pm 154 2 G 8 86° 7% - - 15° 88.7° 53.7° - - 872.0
4/29 4:00pm 49 3 G 7 87° 7% - - 14° 88.7° 53.7° - - 872.0
4/29 3:50pm 41 3 G 8 87° 7% - - 14° 88.7° 53.7° - - 872.0
4/29 3:40pm 7 3 G 11 88° 7% - - 15° 88.7° 53.7° - - 872.0
4/29 3:30pm 4 3 G 10 87° 6% - - 14° 88.7° 53.7° - - 872.0
4/29 3:20pm 54 3 G 9 87° 7% - - 14° 88.4° 53.7° - - 871.0
4/29 3:10pm 49 3 G 8 86° 7% - - 14° 87.1° 53.7° - - 871.0
4/29 3:00pm 281 2 G 7 86° 6% - - 13° 87.1° 53.7° - - 871.0
4/29 2:50pm 32 4 G 12 86° 7% - - 14° 87.1° 53.7° - - 871.0
4/29 2:40pm 60 4 G 13 85° 7% - - 15° 86.6° 53.7° - - 871.0
4/29 2:30pm 66 3 G 10 85° 7% - - 15° 86.3° 53.7° - - 870.0
4/29 2:20pm 59 4 G 10 85° 7% - - 15° 86.3° 53.7° - - 870.0
4/29 2:10pm 78 7 G 14 85° 8% - - 16° 86.3° 53.7° - - 870.0
4/29 2:00pm 62 5 G 13 84° 7% - - 15° 86.3° 53.7° - - 870.0
4/29 1:50pm 38 4 G 15 86° 8% - - 17° 86.3° 53.7° - - 870.0
4/29 1:40pm 308 4 G 9 84° 8% - - 16° 86.1° 53.7° - - 870.0
4/29 1:30pm 79 6 G 16 83° 8% - - 15° 85.9° 53.7° - - 869.0
4/29 1:20pm 52 4 G 12 85° 8% - - 17° 85.9° 53.7° - - 870.0
4/29 1:10pm 328 3 G 9 84° 8% - - 17° 85° 53.7° - - 869.0
4/29 1:00pm 39 4 G 10 83° 8% - - 17° 84.5° 53.7° - - 869.0
4/29 12:50pm 338 3 G 12 84° 8% - - 17° 84.5° 53.7° - - 869.0
4/29 12:40pm 50 4 G 13 83° 9% - - 17° 84° 53.7° - - 869.0
4/29 12:30pm 47 3 G 8 81° 9% - - 17° 83.3° 53.7° - - 868.0
4/29 12:20pm 88 8 G 16 80° 9% - - 15° 81.4° 53.7° - - 868.0
4/29 12:10pm 94 6 G 14 80° 9% - - 16° 81.4° 53.7° - - 868.0
4/29 12:00pm 87 7 G 13 79° 9% - - 15° 81.4° 53.7° - - 868.0
4/29 11:50am 27 4 G 12 80° 9% - - 16° 81.4° 53.7° - - 868.0
4/29 11:40am 346 4 G 11 80° 9% - - 16° 81.4° 53.7° - - 868.0
4/29 11:30am 25 3 G 10 80° 9% - - 17° 81.4° 53.7° - - 868.0
4/29 11:20am 38 4 G 11 80° 9% - - 17° 81.4° 53.7° - - 867.0
4/29 11:10am 66 5 G 12 78° 10% - - 16° 80.1° 53.7° - - 867.0
4/29 11:00am 75 8 G 18 78° 10% - - 16° 79.9° 53.7° - - 867.0
4/29 10:50am 56 6 G 12 78° 10% - - 17° 79° 53.7° - - 866.0
4/29 10:40am 54 5 G 13 78° 10% - - 17° 78.8° 53.7° - - 866.0
4/29 10:30am 63 5 G 15 77° 10% - - 16° 78.8° 53.7° - - 866.0
4/29 10:20am 63 8 G 21 77° 9% - - 14° 77.7° 53.7° - - 865.0
4/29 10:10am 68 9 G 20 76° 9% - - 14° 77° 53.7° - - 865.0
4/29 10:00am 53 5 G 15 76° 10% - - 16° 77° 53.7° - - 865.0
4/29 9:50am 62 8 G 18 75° 10% - - 14° 75.7° 53.7° - - 865.0
4/29 9:40am 72 6 G 17 75° 9% - - 13° 75.6° 53.7° - - 864.0
4/29 9:30am 82 7 G 14 74° 9% - - 13° 75.4° 53.7° - - 864.0
4/29 9:20am 81 7 G 12 74° 10% - - 14° 75.3° 53.7° - - 864.0
4/29 9:10am 71 7 G 17 74° 10% - - 14° 75.3° 53.7° - - 864.0
4/29 9:00am 77 5 G 17 74° 10% - - 13° 74.5° 53.7° - - 864.0
4/29 8:50am 62 5 G 13 74° 10% - - 14° 74.1° 53.7° - - 864.0
4/29 8:40am 58 5 G 14 73° 10% - - 14° 73.4° 53.7° - - 864.0
4/29 8:30am 63 6 G 14 72° 10% - - 13° 73.4° 53.7° - - 863.0
4/29 8:20am 68 8 G 14 72° 11% - - 13° 73.4° 53.7° - - 863.0
4/29 8:10am 68 10 G 21 71° 10% - - 12° 73.4° 53.7° - - 863.0
4/29 8:00am 70 9 G 18 70° 11% - - 13° 73.4° 53.7° - - 863.0
4/29 7:50am 70 11 G 22 70° 11% - - 12° 73.4° 53.7° - - 863.0
4/29 7:40am 71 11 G 23 69° 11% - - 12° 73.4° 53.7° - - 862.0
4/29 7:30am 77 11 G 20 69° 11% - - 12° 73.4° 53.7° - - 862.0
4/29 7:20am 66 10 G 22 68° 11% - - 12° 73.4° 53.7° - - 862.0
4/29 7:10am 65 10 G 18 68° 11% - - 12° 73.4° 53.7° - - 862.0
4/29 7:00am 60 11 G 21 68° 11% - - 11° 73.4° 53.7° - - 862.0
4/29 6:50am 64 12 G 25 68° 10% - - 73.4° 53.7° - - 862.0
4/29 6:40am 60 9 G 18 68° 9% - - 73.4° 53.7° - - 861.0
4/29 6:30am 60 11 G 23 68° 9% - - 73.4° 53.7° - - 861.0
4/29 6:20am 54 10 G 22 68° 10% - - 73.4° 53.7° - - 862.0
4/29 6:10am 53 11 G 24 68° 10% - - 73.4° 53.7° - - 862.0
4/29 6:00am 51 11 G 25 68° 10% - - 73.4° 53.7° - - 862.0
4/29 5:50am 59 11 G 28 68° 10% - - 73.4° 53.7° - - 862.0
4/29 5:40am 63 13 G 27 68° 10% - - 73.4° 53.7° - - 862.0
4/29 5:30am 60 12 G 27 68° 10% - - 73.4° 53.7° - - 862.0
4/29 5:20am 61 12 G 22 68° 10% - - 73.4° 53.7° - - 862.0
4/29 5:10am 64 11 G 23 68° 10% - - 10° 73.4° 53.7° - - 862.0
4/29 5:00am 63 11 G 21 68° 10% - - 10° 73.4° 53.7° - - 862.0
4/29 4:50am 62 10 G 23 69° 10% - - 11° 73.4° 53.7° - - 862.0
4/29 4:40am 64 13 G 24 69° 10% - - 10° 73.4° 53.7° - - 862.0
4/29 4:30am 63 11 G 22 69° 10% - - 11° 73.4° 53.7° - - 862.0
4/29 4:20am 62 10 G 24 69° 10% - - 10° 73.4° 53.7° - - 862.0
4/29 4:10am 58 9 G 22 69° 10% - - 10° 73.4° 53.7° - - 862.0
4/29 4:00am 62 12 G 25 69° 10% - - 10° 73.4° 53.7° - - 862.0
4/29 3:50am 62 12 G 24 70° 10% - - 10° 73.4° 53.7° - - 862.0
4/29 3:40am 61 12 G 29 70° 10% - - 10° 73.4° 53.7° - - 862.0
4/29 3:30am 57 10 G 20 70° 10% - - 10° 73.4° 53.7° - - 862.0
4/29 3:20am 57 10 G 23 70° 10% - - 10° 73.4° 53.7° - - 862.0
4/29 3:10am 57 10 G 23 71° 9% - - 10° 73.4° 53.7° - - 862.0
4/29 3:00am 61 10 G 23 71° 10% - - 10° 73.4° 53.7° - - 862.0
4/29 2:50am 58 9 G 19 71° 10% - - 11° 73.4° 53.7° - - 862.0
4/29 2:40am 63 12 G 22 71° 9% - - 11° 73.4° 53.7° - - 862.0
4/29 2:30am 63 9 G 17 71° 10% - - 11° 73.4° 53.7° - - 862.0
4/29 2:20am 63 10 G 20 71° 9% - - 11° 73.4° 53.7° - - 863.0
4/29 2:10am 57 12 G 28 72° 9% - - 11° 73.4° 53.7° - - 863.0
4/29 2:00am 60 11 G 21 72° 9% - - 11° 73.4° 53.7° - - 863.0
4/29 1:50am 61 10 G 21 72° 10% - - 11° 73.4° 53.7° - - 863.0
4/29 1:40am 61 9 G 19 72° 9% - - 11° 73.4° 53.7° - - 863.0
4/29 1:30am 53 9 G 21 72° 9% - - 11° 73.4° 53.7° - - 863.0
4/29 1:20am 60 9 G 18 73° 9% - - 11° 73.4° 53.7° - - 863.0
4/29 1:10am 63 10 G 18 73° 9% - - 11° 73.4° 53.7° - - 863.0
4/29 1:00am 63 10 G 18 73° 9% - - 11° 73.4° 53.7° - - 862.0
4/29 12:50am 60 9 G 17 73° 9% - - 12° 73.3° 53.7° - - 862.0
4/29 12:40am 60 7 G 17 73° 10% - - 13° 73.3° 53.7° - - 862.0
4/29 12:30am 61 7 G 15 73° 10% - - 13° 73.3° 53.7° - - 862.0
4/29 12:20am 59 8 G 18 72° 11% - - 15° 73.1° 53.7° - - 862.0
4/29 12:10am 10 4 G 12 59° 34% - - 27° 70.3° 53.7° - - 870.0
4/29 12:00am 265 3 G 7 54° 52% - - 37° 78.3° 46.2° - - 875.0
4/28 11:50pm 240 2 G 7 55° 51% - - 37° 78.3° 46.2° - - 875.0
4/28 11:40pm 224 1 G 6 54° 52% - - 36° 78.3° 46.2° - - 874.0
4/28 11:30pm 297 3 G 7 54° 50% - - 36° 78.3° 46.2° - - 874.0
4/28 11:20pm 34 2 G 7 54° 51% - - 37° 78.3° 46.2° - - 875.0
4/28 11:10pm 128 1 G 3 53° 53% - - 37° 78.3° 46.2° - - 875.0
4/28 11:00pm 46 2 G 4 54° 51% - - 36° 78.3° 46.2° - - 874.0
4/28 10:50pm 326 1 G 4 55° 49% - - 36° 78.3° 46.2° - - 874.0
4/28 10:40pm 35 1 G 4 57° 45% - - 36° 78.3° 46.2° - - 873.0
4/28 10:30pm 68 2 G 4 56° 48% - - 36° 78.3° 46.2° - - 874.0
4/28 10:20pm 90 1 G 3 56° 48% - - 36° 78.3° 46.2° - - 874.0
4/28 10:10pm 11 1 G 5 57° 46% - - 36° 78.3° 46.2° - - 873.0
4/28 10:00pm 61 1 G 4 57° 47% - - 37° 78.3° 46.2° - - 874.0
4/28 9:50pm 94 0 G 2 57° 46% - - 37° 78.3° 46.2° - - 873.0
4/28 9:40pm 74 2 G 4 59° 42% - - 36° 78.3° 46.2° - - 872.0
4/28 9:30pm 23 2 G 5 60° 42% - - 37° 78.3° 46.2° - - 873.0
4/28 9:20pm 347 1 G 2 61° 40% - - 37° 78.3° 46.2° - - 872.0
4/28 9:10pm 57 2 G 4 60° 42% - - 37° 78.3° 46.2° - - 873.0
4/28 9:00pm 3 2 G 3 60° 43% - - 38° 78.3° 46.2° - - 873.0
4/28 8:50pm 13 2 G 4 61° 41% - - 38° 78.3° 46.2° - - 873.0
4/28 8:40pm 11 1 G 4 61° 42% - - 38° 78.3° 46.2° - - 873.0
4/28 8:30pm 15 3 G 5 63° 38% - - 38° 78.3° 46.2° - - 872.0
4/28 8:20pm 35 3 G 5 64° 38% - - 38° 78.3° 46.2° - - 872.0
4/28 8:10pm 27 3 G 5 65° 36% - - 38° 78.3° 46.2° - - 872.0
4/28 8:00pm 16 1 G 4 65° 37% - - 38° 78.3° 46.2° - - 872.0
4/28 7:50pm 76 2 G 6 65° 36% - - 38° 78.3° 46.2° - - 872.0
4/28 7:40pm 49 2 G 6 68° 31% - - 36° 78.3° 46.2° - - 871.0
4/28 7:30pm 49 1 G 2 69° 31% - - 37° 78.3° 46.2° - - 871.0
4/28 7:20pm 7 1 G 4 70° 29% - - 37° 78.3° 46.2° - - 871.0
4/28 7:10pm 84 2 G 4 72° 27% - - 36° 78.3° 46.2° - - 871.0
4/28 7:00pm 229 0 G 2 73° 25% - - 36° 78.3° 46.2° - - 871.0
4/28 6:50pm 215 0 G 3 74° 24% - - 35° 78.3° 46.2° - - 870.0
4/28 6:40pm 230 1 G 4 75° 23% - - 34° 78.3° 46.2° - - 870.0
4/28 6:30pm 230 2 G 5 75° 23% - - 34° 78.3° 46.2° - - 870.0
4/28 6:20pm 223 3 G 7 75° 23% - - 35° 78.3° 46.2° - - 870.0
4/28 6:10pm 225 2 G 6 75° 24% - - 35° 78.3° 46.2° - - 871.0
4/28 6:00pm 232 2 G 6 75° 23% - - 35° 78.3° 46.2° - - 870.0